sensor_id;sensor_type;location;lat;lon;timestamp;P1;durP1;ratioP1;P2;durP2;ratioP2
60993;SDS011;47611;54.932;73.338;2022-08-21T00:00:45;22.25;;;10.85;;
60993;SDS011;47611;54.932;73.338;2022-08-21T00:03:12;21.58;;;9.88;;
60993;SDS011;47611;54.932;73.338;2022-08-21T00:05:40;19.58;;;9.20;;
60993;SDS011;47611;54.932;73.338;2022-08-21T00:08:12;18.98;;;8.77;;
60993;SDS011;47611;54.932;73.338;2022-08-21T00:10:39;17.60;;;7.78;;
60993;SDS011;47611;54.932;73.338;2022-08-21T00:13:06;17.75;;;7.88;;
60993;SDS011;47611;54.932;73.338;2022-08-21T00:15:33;19.50;;;7.80;;
60993;SDS011;47611;54.932;73.338;2022-08-21T00:18:01;16.77;;;7.70;;
60993;SDS011;47611;54.932;73.338;2022-08-21T00:20:29;17.75;;;7.90;;
60993;SDS011;47611;54.932;73.338;2022-08-21T00:22:56;18.40;;;7.57;;
60993;SDS011;47611;54.932;73.338;2022-08-21T00:25:22;19.20;;;8.80;;
60993;SDS011;47611;54.932;73.338;2022-08-21T00:27:49;16.83;;;7.72;;
60993;SDS011;47611;54.932;73.338;2022-08-21T00:30:16;17.00;;;8.32;;
60993;SDS011;47611;54.932;73.338;2022-08-21T00:32:43;17.95;;;8.00;;
60993;SDS011;47611;54.932;73.338;2022-08-21T00:35:12;18.80;;;8.07;;
60993;SDS011;47611;54.932;73.338;2022-08-21T00:37:51;17.58;;;7.78;;
60993;SDS011;47611;54.932;73.338;2022-08-21T00:40:18;16.40;;;7.40;;
60993;SDS011;47611;54.932;73.338;2022-08-21T00:42:47;18.00;;;8.40;;
60993;SDS011;47611;54.932;73.338;2022-08-21T00:45:15;19.13;;;8.07;;
60993;SDS011;47611;54.932;73.338;2022-08-21T00:47:42;18.95;;;8.40;;
60993;SDS011;47611;54.932;73.338;2022-08-21T00:50:09;17.20;;;7.72;;
60993;SDS011;47611;54.932;73.338;2022-08-21T00:52:42;17.65;;;7.40;;
60993;SDS011;47611;54.932;73.338;2022-08-21T00:55:10;17.48;;;7.22;;
60993;SDS011;47611;54.932;73.338;2022-08-21T00:57:42;20.27;;;7.45;;
60993;SDS011;47611;54.932;73.338;2022-08-21T01:00:14;15.63;;;7.40;;
60993;SDS011;47611;54.932;73.338;2022-08-21T01:02:43;18.58;;;7.60;;
60993;SDS011;47611;54.932;73.338;2022-08-21T01:05:10;15.73;;;7.45;;
60993;SDS011;47611;54.932;73.338;2022-08-21T01:07:37;16.13;;;7.95;;
60993;SDS011;47611;54.932;73.338;2022-08-21T01:10:05;17.90;;;8.15;;
60993;SDS011;47611;54.932;73.338;2022-08-21T01:12:32;17.25;;;7.45;;
60993;SDS011;47611;54.932;73.338;2022-08-21T01:14:58;19.17;;;7.70;;
60993;SDS011;47611;54.932;73.338;2022-08-21T01:17:26;14.32;;;7.80;;
60993;SDS011;47611;54.932;73.338;2022-08-21T01:19:56;15.48;;;8.40;;
60993;SDS011;47611;54.932;73.338;2022-08-21T01:22:24;19.80;;;8.27;;
60993;SDS011;47611;54.932;73.338;2022-08-21T01:24:50;16.33;;;7.85;;
60993;SDS011;47611;54.932;73.338;2022-08-21T01:27:16;16.80;;;8.30;;
60993;SDS011;47611;54.932;73.338;2022-08-21T01:29:47;15.80;;;7.90;;
60993;SDS011;47611;54.932;73.338;2022-08-21T01:32:17;21.55;;;8.50;;
60993;SDS011;47611;54.932;73.338;2022-08-21T01:34:45;19.30;;;8.52;;
60993;SDS011;47611;54.932;73.338;2022-08-21T01:37:13;18.63;;;8.93;;
60993;SDS011;47611;54.932;73.338;2022-08-21T01:39:40;17.83;;;9.18;;
60993;SDS011;47611;54.932;73.338;2022-08-21T01:42:08;18.33;;;8.48;;
60993;SDS011;47611;54.932;73.338;2022-08-21T01:44:35;22.63;;;8.90;;
60993;SDS011;47611;54.932;73.338;2022-08-21T01:47:03;19.63;;;9.43;;
60993;SDS011;47611;54.932;73.338;2022-08-21T01:49:36;18.17;;;8.80;;
60993;SDS011;47611;54.932;73.338;2022-08-21T01:52:03;21.50;;;9.45;;
60993;SDS011;47611;54.932;73.338;2022-08-21T01:54:31;19.15;;;9.38;;
60993;SDS011;47611;54.932;73.338;2022-08-21T01:56:58;19.60;;;9.07;;
60993;SDS011;47611;54.932;73.338;2022-08-21T01:59:25;21.42;;;10.80;;
60993;SDS011;47611;54.932;73.338;2022-08-21T02:01:52;29.08;;;12.80;;
60993;SDS011;47611;54.932;73.338;2022-08-21T02:04:22;23.98;;;13.35;;
60993;SDS011;47611;54.932;73.338;2022-08-21T02:06:48;23.80;;;10.98;;
60993;SDS011;47611;54.932;73.338;2022-08-21T02:09:14;21.02;;;10.52;;
60993;SDS011;47611;54.932;73.338;2022-08-21T02:11:41;29.63;;;14.27;;
60993;SDS011;47611;54.932;73.338;2022-08-21T02:14:17;29.27;;;13.50;;
60993;SDS011;47611;54.932;73.338;2022-08-21T02:16:44;24.90;;;12.45;;
60993;SDS011;47611;54.932;73.338;2022-08-21T02:19:12;22.77;;;11.52;;
60993;SDS011;47611;54.932;73.338;2022-08-21T02:21:40;17.75;;;9.70;;
60993;SDS011;47611;54.932;73.338;2022-08-21T02:24:07;21.33;;;10.20;;
60993;SDS011;47611;54.932;73.338;2022-08-21T02:26:34;17.33;;;8.70;;
60993;SDS011;47611;54.932;73.338;2022-08-21T02:29:10;17.27;;;8.75;;
60993;SDS011;47611;54.932;73.338;2022-08-21T02:31:36;17.73;;;8.50;;
60993;SDS011;47611;54.932;73.338;2022-08-21T02:34:02;14.77;;;8.50;;
60993;SDS011;47611;54.932;73.338;2022-08-21T02:36:29;13.05;;;7.53;;
60993;SDS011;47611;54.932;73.338;2022-08-21T02:38:55;15.25;;;7.43;;
60993;SDS011;47611;54.932;73.338;2022-08-21T02:41:22;12.63;;;7.13;;
60993;SDS011;47611;54.932;73.338;2022-08-21T02:43:48;16.25;;;7.68;;
60993;SDS011;47611;54.932;73.338;2022-08-21T02:46:16;18.73;;;7.90;;
60993;SDS011;47611;54.932;73.338;2022-08-21T02:48:43;19.60;;;8.93;;
60993;SDS011;47611;54.932;73.338;2022-08-21T02:51:17;14.52;;;7.90;;
60993;SDS011;47611;54.932;73.338;2022-08-21T02:53:50;16.67;;;7.93;;
60993;SDS011;47611;54.932;73.338;2022-08-21T02:56:18;18.52;;;9.13;;
60993;SDS011;47611;54.932;73.338;2022-08-21T02:58:51;14.57;;;8.52;;
60993;SDS011;47611;54.932;73.338;2022-08-21T03:01:18;19.73;;;8.02;;
60993;SDS011;47611;54.932;73.338;2022-08-21T03:03:45;16.63;;;7.95;;
60993;SDS011;47611;54.932;73.338;2022-08-21T03:06:15;17.58;;;8.70;;
60993;SDS011;47611;54.932;73.338;2022-08-21T03:08:43;18.42;;;8.50;;
60993;SDS011;47611;54.932;73.338;2022-08-21T03:11:10;15.27;;;8.40;;
60993;SDS011;47611;54.932;73.338;2022-08-21T03:13:38;16.70;;;7.63;;
60993;SDS011;47611;54.932;73.338;2022-08-21T03:16:04;14.13;;;7.38;;
60993;SDS011;47611;54.932;73.338;2022-08-21T03:18:31;15.82;;;7.78;;
60993;SDS011;47611;54.932;73.338;2022-08-21T03:20:57;19.92;;;8.13;;
60993;SDS011;47611;54.932;73.338;2022-08-21T03:23:29;19.33;;;9.95;;
60993;SDS011;47611;54.932;73.338;2022-08-21T03:25:56;21.15;;;8.23;;
60993;SDS011;47611;54.932;73.338;2022-08-21T03:28:23;16.27;;;7.90;;
60993;SDS011;47611;54.932;73.338;2022-08-21T03:30:50;16.35;;;8.75;;
60993;SDS011;47611;54.932;73.338;2022-08-21T03:33:17;16.90;;;8.40;;
60993;SDS011;47611;54.932;73.338;2022-08-21T03:35:45;18.08;;;9.05;;
60993;SDS011;47611;54.932;73.338;2022-08-21T03:38:17;19.80;;;8.80;;
60993;SDS011;47611;54.932;73.338;2022-08-21T03:40:45;18.20;;;8.85;;
60993;SDS011;47611;54.932;73.338;2022-08-21T03:43:11;19.55;;;8.70;;
60993;SDS011;47611;54.932;73.338;2022-08-21T03:45:38;19.88;;;9.55;;
60993;SDS011;47611;54.932;73.338;2022-08-21T03:48:05;16.77;;;9.23;;
60993;SDS011;47611;54.932;73.338;2022-08-21T03:50:34;25.30;;;10.18;;
60993;SDS011;47611;54.932;73.338;2022-08-21T03:53:02;18.48;;;8.57;;
60993;SDS011;47611;54.932;73.338;2022-08-21T03:55:29;20.38;;;9.95;;
60993;SDS011;47611;54.932;73.338;2022-08-21T03:57:56;22.67;;;10.45;;
60993;SDS011;47611;54.932;73.338;2022-08-21T04:00:22;20.83;;;10.07;;
60993;SDS011;47611;54.932;73.338;2022-08-21T04:02:49;16.80;;;8.70;;
60993;SDS011;47611;54.932;73.338;2022-08-21T04:05:16;18.50;;;8.55;;
60993;SDS011;47611;54.932;73.338;2022-08-21T04:08:04;16.83;;;9.07;;
60993;SDS011;47611;54.932;73.338;2022-08-21T04:10:32;20.52;;;9.88;;
60993;SDS011;47611;54.932;73.338;2022-08-21T04:13:00;21.85;;;9.40;;
60993;SDS011;47611;54.932;73.338;2022-08-21T04:15:27;19.80;;;8.98;;
60993;SDS011;47611;54.932;73.338;2022-08-21T04:17:53;18.45;;;9.43;;
60993;SDS011;47611;54.932;73.338;2022-08-21T04:20:26;22.23;;;10.63;;
60993;SDS011;47611;54.932;73.338;2022-08-21T04:22:52;25.63;;;12.32;;
60993;SDS011;47611;54.932;73.338;2022-08-21T04:25:28;32.45;;;12.75;;
60993;SDS011;47611;54.932;73.338;2022-08-21T04:27:55;30.45;;;12.98;;
60993;SDS011;47611;54.932;73.338;2022-08-21T04:30:22;29.20;;;12.70;;
60993;SDS011;47611;54.932;73.338;2022-08-21T04:32:49;29.05;;;12.93;;
60993;SDS011;47611;54.932;73.338;2022-08-21T04:35:21;28.85;;;12.63;;
60993;SDS011;47611;54.932;73.338;2022-08-21T04:37:52;29.00;;;12.88;;
60993;SDS011;47611;54.932;73.338;2022-08-21T04:40:19;24.50;;;12.23;;
60993;SDS011;47611;54.932;73.338;2022-08-21T04:42:52;21.20;;;10.32;;
60993;SDS011;47611;54.932;73.338;2022-08-21T04:45:36;24.95;;;11.32;;
60993;SDS011;47611;54.932;73.338;2022-08-21T04:48:06;23.75;;;11.57;;
60993;SDS011;47611;54.932;73.338;2022-08-21T04:51:34;24.40;;;11.23;;
60993;SDS011;47611;54.932;73.338;2022-08-21T04:53:47;24.63;;;10.73;;
60993;SDS011;47611;54.932;73.338;2022-08-21T04:56:22;23.67;;;12.10;;
60993;SDS011;47611;54.932;73.338;2022-08-21T04:58:57;25.50;;;12.02;;
60993;SDS011;47611;54.932;73.338;2022-08-21T05:01:26;28.05;;;13.25;;
60993;SDS011;47611;54.932;73.338;2022-08-21T05:03:55;25.65;;;12.52;;
60993;SDS011;47611;54.932;73.338;2022-08-21T05:06:29;24.67;;;12.40;;
60993;SDS011;47611;54.932;73.338;2022-08-21T05:08:58;26.35;;;11.85;;
60993;SDS011;47611;54.932;73.338;2022-08-21T05:11:36;30.65;;;12.95;;
60993;SDS011;47611;54.932;73.338;2022-08-21T05:14:07;25.42;;;12.35;;
60993;SDS011;47611;54.932;73.338;2022-08-21T05:16:34;24.27;;;12.95;;
60993;SDS011;47611;54.932;73.338;2022-08-21T05:19:00;29.33;;;14.63;;
60993;SDS011;47611;54.932;73.338;2022-08-21T05:21:39;30.65;;;15.70;;
60993;SDS011;47611;54.932;73.338;2022-08-21T05:24:07;35.30;;;16.85;;
60993;SDS011;47611;54.932;73.338;2022-08-21T05:26:38;31.97;;;14.60;;
60993;SDS011;47611;54.932;73.338;2022-08-21T05:29:15;26.45;;;14.18;;
60993;SDS011;47611;54.932;73.338;2022-08-21T05:31:46;29.63;;;15.63;;
60993;SDS011;47611;54.932;73.338;2022-08-21T05:34:20;28.83;;;14.77;;
60993;SDS011;47611;54.932;73.338;2022-08-21T05:36:49;30.83;;;14.52;;
60993;SDS011;47611;54.932;73.338;2022-08-21T05:39:15;29.23;;;13.93;;
60993;SDS011;47611;54.932;73.338;2022-08-21T05:41:41;27.00;;;14.40;;
60993;SDS011;47611;54.932;73.338;2022-08-21T05:44:08;25.98;;;13.50;;
60993;SDS011;47611;54.932;73.338;2022-08-21T05:46:34;25.98;;;13.80;;
60993;SDS011;47611;54.932;73.338;2022-08-21T05:49:06;32.30;;;14.88;;
60993;SDS011;47611;54.932;73.338;2022-08-21T05:51:38;25.45;;;13.63;;
60993;SDS011;47611;54.932;73.338;2022-08-21T05:54:10;27.40;;;13.60;;
60993;SDS011;47611;54.932;73.338;2022-08-21T05:56:36;28.60;;;14.65;;
60993;SDS011;47611;54.932;73.338;2022-08-21T05:59:13;29.63;;;15.93;;
60993;SDS011;47611;54.932;73.338;2022-08-21T06:01:49;26.52;;;14.50;;
60993;SDS011;47611;54.932;73.338;2022-08-21T06:04:16;26.33;;;13.52;;
60993;SDS011;47611;54.932;73.338;2022-08-21T06:06:53;26.00;;;13.50;;
60993;SDS011;47611;54.932;73.338;2022-08-21T06:09:19;28.80;;;14.18;;
60993;SDS011;47611;54.932;73.338;2022-08-21T06:11:47;28.70;;;14.85;;
60993;SDS011;47611;54.932;73.338;2022-08-21T06:14:22;26.27;;;14.45;;
60993;SDS011;47611;54.932;73.338;2022-08-21T06:17:04;21.75;;;12.85;;
60993;SDS011;47611;54.932;73.338;2022-08-21T06:19:31;23.08;;;14.05;;
60993;SDS011;47611;54.932;73.338;2022-08-21T06:22:08;21.80;;;13.68;;
60993;SDS011;47611;54.932;73.338;2022-08-21T06:24:44;21.42;;;13.57;;
60993;SDS011;47611;54.932;73.338;2022-08-21T06:27:11;21.38;;;12.73;;
60993;SDS011;47611;54.932;73.338;2022-08-21T06:29:37;23.25;;;14.48;;
60993;SDS011;47611;54.932;73.338;2022-08-21T06:32:04;20.50;;;11.85;;
60993;SDS011;47611;54.932;73.338;2022-08-21T06:34:45;21.15;;;12.60;;
60993;SDS011;47611;54.932;73.338;2022-08-21T06:37:11;17.75;;;10.65;;
60993;SDS011;47611;54.932;73.338;2022-08-21T06:39:37;19.65;;;11.70;;
60993;SDS011;47611;54.932;73.338;2022-08-21T06:42:03;16.08;;;11.07;;
60993;SDS011;47611;54.932;73.338;2022-08-21T06:44:30;14.38;;;10.23;;
60993;SDS011;47611;54.932;73.338;2022-08-21T06:47:03;17.02;;;10.88;;
60993;SDS011;47611;54.932;73.338;2022-08-21T06:49:29;23.98;;;14.40;;
60993;SDS011;47611;54.932;73.338;2022-08-21T06:51:56;23.33;;;13.23;;
60993;SDS011;47611;54.932;73.338;2022-08-21T06:54:22;20.77;;;13.30;;
60993;SDS011;47611;54.932;73.338;2022-08-21T06:56:49;17.55;;;10.48;;
60993;SDS011;47611;54.932;73.338;2022-08-21T06:59:15;16.92;;;10.20;;
60993;SDS011;47611;54.932;73.338;2022-08-21T07:01:41;12.25;;;8.50;;
60993;SDS011;47611;54.932;73.338;2022-08-21T07:04:12;14.85;;;8.95;;
60993;SDS011;47611;54.932;73.338;2022-08-21T07:06:43;15.95;;;10.05;;
60993;SDS011;47611;54.932;73.338;2022-08-21T07:09:12;19.33;;;11.45;;
60993;SDS011;47611;54.932;73.338;2022-08-21T07:11:38;16.33;;;10.32;;
60993;SDS011;47611;54.932;73.338;2022-08-21T07:14:05;13.88;;;8.77;;
60993;SDS011;47611;54.932;73.338;2022-08-21T07:16:31;13.43;;;7.45;;
60993;SDS011;47611;54.932;73.338;2022-08-21T07:18:57;13.38;;;7.85;;
60993;SDS011;47611;54.932;73.338;2022-08-21T07:21:23;14.43;;;7.63;;
60993;SDS011;47611;54.932;73.338;2022-08-21T07:23:50;18.45;;;9.52;;
60993;SDS011;47611;54.932;73.338;2022-08-21T07:26:18;22.08;;;11.02;;
60993;SDS011;47611;54.932;73.338;2022-08-21T07:28:49;19.63;;;10.68;;
60993;SDS011;47611;54.932;73.338;2022-08-21T07:31:22;17.67;;;11.57;;
60993;SDS011;47611;54.932;73.338;2022-08-21T07:33:56;14.00;;;9.35;;
60993;SDS011;47611;54.932;73.338;2022-08-21T07:36:22;12.45;;;7.90;;
60993;SDS011;47611;54.932;73.338;2022-08-21T07:38:49;16.08;;;7.85;;
60993;SDS011;47611;54.932;73.338;2022-08-21T07:41:16;15.30;;;8.93;;
60993;SDS011;47611;54.932;73.338;2022-08-21T07:43:44;10.88;;;5.90;;
60993;SDS011;47611;54.932;73.338;2022-08-21T07:46:11;4.68;;;3.47;;
60993;SDS011;47611;54.932;73.338;2022-08-21T07:48:38;5.25;;;3.17;;
60993;SDS011;47611;54.932;73.338;2022-08-21T07:51:09;5.78;;;3.88;;
60993;SDS011;47611;54.932;73.338;2022-08-21T07:53:37;4.68;;;2.80;;
60993;SDS011;47611;54.932;73.338;2022-08-21T07:56:04;4.20;;;2.60;;
60993;SDS011;47611;54.932;73.338;2022-08-21T07:58:32;3.35;;;2.30;;
60993;SDS011;47611;54.932;73.338;2022-08-21T08:01:04;2.70;;;2.00;;
60993;SDS011;47611;54.932;73.338;2022-08-21T08:03:31;4.72;;;1.70;;
60993;SDS011;47611;54.932;73.338;2022-08-21T08:05:58;2.78;;;1.88;;
60993;SDS011;47611;54.932;73.338;2022-08-21T08:08:25;2.08;;;1.50;;
60993;SDS011;47611;54.932;73.338;2022-08-21T08:10:51;2.03;;;1.38;;
60993;SDS011;47611;54.932;73.338;2022-08-21T08:13:19;7.90;;;5.45;;
60993;SDS011;47611;54.932;73.338;2022-08-21T08:15:45;5.40;;;2.40;;
60993;SDS011;47611;54.932;73.338;2022-08-21T08:18:11;2.80;;;1.70;;
60993;SDS011;47611;54.932;73.338;2022-08-21T08:20:39;3.85;;;1.70;;
60993;SDS011;47611;54.932;73.338;2022-08-21T08:23:07;4.40;;;2.00;;
60993;SDS011;47611;54.932;73.338;2022-08-21T08:25:35;6.63;;;2.60;;
60993;SDS011;47611;54.932;73.338;2022-08-21T08:28:06;5.45;;;3.30;;
60993;SDS011;47611;54.932;73.338;2022-08-21T08:30:33;3.15;;;1.67;;
60993;SDS011;47611;54.932;73.338;2022-08-21T08:33:00;2.45;;;1.77;;
60993;SDS011;47611;54.932;73.338;2022-08-21T08:35:26;5.78;;;3.58;;
60993;SDS011;47611;54.932;73.338;2022-08-21T08:38:02;4.82;;;1.65;;
60993;SDS011;47611;54.932;73.338;2022-08-21T08:41:11;2.78;;;1.60;;
60993;SDS011;47611;54.932;73.338;2022-08-21T08:43:38;2.90;;;1.60;;
60993;SDS011;47611;54.932;73.338;2022-08-21T08:46:12;1.67;;;1.20;;
60993;SDS011;47611;54.932;73.338;2022-08-21T08:48:51;3.42;;;1.70;;
60993;SDS011;47611;54.932;73.338;2022-08-21T08:51:30;4.15;;;2.22;;
60993;SDS011;47611;54.932;73.338;2022-08-21T08:54:18;3.15;;;2.20;;
60993;SDS011;47611;54.932;73.338;2022-08-21T08:57:00;3.13;;;1.90;;
60993;SDS011;47611;54.932;73.338;2022-08-21T08:59:41;3.92;;;2.05;;
60993;SDS011;47611;54.932;73.338;2022-08-21T09:02:15;4.07;;;2.20;;
60993;SDS011;47611;54.932;73.338;2022-08-21T09:04:43;3.63;;;2.00;;
60993;SDS011;47611;54.932;73.338;2022-08-21T09:09:55;11.30;;;4.43;;
60993;SDS011;47611;54.932;73.338;2022-08-21T09:12:33;8.07;;;3.63;;
60993;SDS011;47611;54.932;73.338;2022-08-21T09:20:47;5.78;;;3.00;;
60993;SDS011;47611;54.932;73.338;2022-08-21T09:26:07;8.30;;;3.72;;
60993;SDS011;47611;54.932;73.338;2022-08-21T09:28:53;7.03;;;3.67;;
60993;SDS011;47611;54.932;73.338;2022-08-21T09:34:05;6.18;;;2.83;;
60993;SDS011;47611;54.932;73.338;2022-08-21T09:36:40;6.85;;;3.42;;
60993;SDS011;47611;54.932;73.338;2022-08-21T09:39:11;6.15;;;3.30;;
60993;SDS011;47611;54.932;73.338;2022-08-21T09:41:44;6.38;;;2.97;;
60993;SDS011;47611;54.932;73.338;2022-08-21T09:44:10;5.97;;;3.58;;
60993;SDS011;47611;54.932;73.338;2022-08-21T09:46:36;5.45;;;2.97;;
60993;SDS011;47611;54.932;73.338;2022-08-21T09:49:03;10.57;;;4.03;;
60993;SDS011;47611;54.932;73.338;2022-08-21T09:51:34;9.98;;;3.75;;
60993;SDS011;47611;54.932;73.338;2022-08-21T09:56:34;10.60;;;4.60;;
60993;SDS011;47611;54.932;73.338;2022-08-21T10:01:51;14.63;;;4.63;;
60993;SDS011;47611;54.932;73.338;2022-08-21T10:04:23;40.10;;;9.13;;
60993;SDS011;47611;54.932;73.338;2022-08-21T10:07:08;14.32;;;5.00;;
60993;SDS011;47611;54.932;73.338;2022-08-21T10:09:36;28.10;;;8.60;;
60993;SDS011;47611;54.932;73.338;2022-08-21T10:14:41;18.58;;;5.47;;
60993;SDS011;47611;54.932;73.338;2022-08-21T10:20:11;32.40;;;9.38;;
60993;SDS011;47611;54.932;73.338;2022-08-21T10:29:02;26.88;;;9.50;;
60993;SDS011;47611;54.932;73.338;2022-08-21T10:37:27;23.38;;;9.75;;
60993;SDS011;47611;54.932;73.338;2022-08-21T10:48:27;13.75;;;6.00;;
60993;SDS011;47611;54.932;73.338;2022-08-21T10:51:10;11.70;;;5.43;;
60993;SDS011;47611;54.932;73.338;2022-08-21T10:56:25;9.82;;;5.25;;
60993;SDS011;47611;54.932;73.338;2022-08-21T11:07:16;12.05;;;6.82;;
60993;SDS011;47611;54.932;73.338;2022-08-21T11:09:51;7.95;;;4.55;;
60993;SDS011;47611;54.932;73.338;2022-08-21T11:12:55;8.23;;;4.00;;
60993;SDS011;47611;54.932;73.338;2022-08-21T11:18:15;13.68;;;6.70;;
60993;SDS011;47611;54.932;73.338;2022-08-21T11:20:59;11.07;;;4.30;;
60993;SDS011;47611;54.932;73.338;2022-08-21T11:23:37;14.13;;;5.63;;
60993;SDS011;47611;54.932;73.338;2022-08-21T11:26:17;20.27;;;9.65;;
60993;SDS011;47611;54.932;73.338;2022-08-21T11:28:52;8.73;;;4.93;;
60993;SDS011;47611;54.932;73.338;2022-08-21T11:39:35;13.02;;;4.20;;
60993;SDS011;47611;54.932;73.338;2022-08-21T11:45:27;13.15;;;5.10;;
60993;SDS011;47611;54.932;73.338;2022-08-21T11:48:07;11.23;;;5.55;;
60993;SDS011;47611;54.932;73.338;2022-08-21T11:50:54;18.55;;;10.05;;
60993;SDS011;47611;54.932;73.338;2022-08-21T11:53:27;45.60;;;17.48;;
60993;SDS011;47611;54.932;73.338;2022-08-21T11:58:44;28.90;;;11.32;;
60993;SDS011;47611;54.932;73.338;2022-08-21T12:01:19;22.27;;;11.07;;
60993;SDS011;47611;54.932;73.338;2022-08-21T12:03:59;21.90;;;9.13;;
60993;SDS011;47611;54.932;73.338;2022-08-21T12:06:36;12.60;;;5.57;;
60993;SDS011;47611;54.932;73.338;2022-08-21T12:09:06;10.70;;;5.80;;
60993;SDS011;47611;54.932;73.338;2022-08-21T12:11:46;10.25;;;3.85;;
60993;SDS011;47611;54.932;73.338;2022-08-21T12:14:23;17.25;;;4.93;;
60993;SDS011;47611;54.932;73.338;2022-08-21T12:16:50;8.63;;;5.15;;
60993;SDS011;47611;54.932;73.338;2022-08-21T12:27:41;20.63;;;9.88;;
60993;SDS011;47611;54.932;73.338;2022-08-21T12:29:55;16.13;;;7.50;;
60993;SDS011;47611;54.932;73.338;2022-08-21T12:32:29;8.43;;;4.45;;
60993;SDS011;47611;54.932;73.338;2022-08-21T12:35:18;7.60;;;4.50;;
60993;SDS011;47611;54.932;73.338;2022-08-21T12:41:00;11.63;;;4.53;;
60993;SDS011;47611;54.932;73.338;2022-08-21T12:43:53;10.32;;;3.67;;
60993;SDS011;47611;54.932;73.338;2022-08-21T12:46:29;11.02;;;4.50;;
60993;SDS011;47611;54.932;73.338;2022-08-21T12:49:18;12.20;;;6.30;;
60993;SDS011;47611;54.932;73.338;2022-08-21T12:52:10;8.52;;;4.65;;
60993;SDS011;47611;54.932;73.338;2022-08-21T12:54:40;8.70;;;4.13;;
60993;SDS011;47611;54.932;73.338;2022-08-21T12:57:08;7.88;;;3.55;;
60993;SDS011;47611;54.932;73.338;2022-08-21T12:59:44;7.88;;;3.83;;
60993;SDS011;47611;54.932;73.338;2022-08-21T13:02:18;7.57;;;4.32;;
60993;SDS011;47611;54.932;73.338;2022-08-21T13:04:47;9.38;;;3.78;;
60993;SDS011;47611;54.932;73.338;2022-08-21T13:07:16;12.63;;;4.20;;
60993;SDS011;47611;54.932;73.338;2022-08-21T13:09:49;10.70;;;4.97;;
60993;SDS011;47611;54.932;73.338;2022-08-21T13:12:23;28.02;;;10.80;;
60993;SDS011;47611;54.932;73.338;2022-08-21T13:14:51;14.98;;;6.88;;
60993;SDS011;47611;54.932;73.338;2022-08-21T13:17:22;10.15;;;4.70;;
60993;SDS011;47611;54.932;73.338;2022-08-21T13:19:54;7.15;;;4.45;;
60993;SDS011;47611;54.932;73.338;2022-08-21T13:22:23;11.25;;;4.63;;
60993;SDS011;47611;54.932;73.338;2022-08-21T13:24:54;10.27;;;5.03;;
60993;SDS011;47611;54.932;73.338;2022-08-21T13:27:30;12.43;;;5.80;;
60993;SDS011;47611;54.932;73.338;2022-08-21T13:30:06;12.70;;;6.22;;
60993;SDS011;47611;54.932;73.338;2022-08-21T13:32:37;15.60;;;7.60;;
60993;SDS011;47611;54.932;73.338;2022-08-21T13:35:10;22.38;;;10.75;;
60993;SDS011;47611;54.932;73.338;2022-08-21T13:37:48;13.25;;;5.63;;
60993;SDS011;47611;54.932;73.338;2022-08-21T13:40:39;12.70;;;6.05;;
60993;SDS011;47611;54.932;73.338;2022-08-21T13:43:14;26.40;;;10.80;;
60993;SDS011;47611;54.932;73.338;2022-08-21T13:45:46;19.90;;;9.40;;
60993;SDS011;47611;54.932;73.338;2022-08-21T13:48:14;15.35;;;8.13;;
60993;SDS011;47611;54.932;73.338;2022-08-21T13:50:41;14.40;;;6.60;;
60993;SDS011;47611;54.932;73.338;2022-08-21T13:55:58;14.88;;;6.95;;
60993;SDS011;47611;54.932;73.338;2022-08-21T13:58:27;14.07;;;7.30;;
60993;SDS011;47611;54.932;73.338;2022-08-21T14:00:58;11.07;;;5.63;;
60993;SDS011;47611;54.932;73.338;2022-08-21T14:03:38;12.57;;;6.38;;
60993;SDS011;47611;54.932;73.338;2022-08-21T14:06:14;18.27;;;8.23;;
60993;SDS011;47611;54.932;73.338;2022-08-21T14:08:51;13.93;;;5.95;;
60993;SDS011;47611;54.932;73.338;2022-08-21T14:11:27;11.98;;;5.50;;
60993;SDS011;47611;54.932;73.338;2022-08-21T14:16:57;18.17;;;8.98;;
60993;SDS011;47611;54.932;73.338;2022-08-21T14:19:36;14.13;;;6.10;;
60993;SDS011;47611;54.932;73.338;2022-08-21T14:22:27;12.00;;;5.78;;
60993;SDS011;47611;54.932;73.338;2022-08-21T14:25:03;9.25;;;5.05;;
60993;SDS011;47611;54.932;73.338;2022-08-21T14:27:37;11.35;;;5.60;;
60993;SDS011;47611;54.932;73.338;2022-08-21T14:30:19;16.88;;;6.82;;
60993;SDS011;47611;54.932;73.338;2022-08-21T14:32:57;12.45;;;5.22;;
60993;SDS011;47611;54.932;73.338;2022-08-21T14:35:24;13.30;;;5.38;;
60993;SDS011;47611;54.932;73.338;2022-08-21T14:37:51;21.05;;;8.68;;
60993;SDS011;47611;54.932;73.338;2022-08-21T14:40:24;24.38;;;9.95;;
60993;SDS011;47611;54.932;73.338;2022-08-21T14:42:51;22.10;;;11.80;;
60993;SDS011;47611;54.932;73.338;2022-08-21T14:47:56;16.98;;;8.05;;
60993;SDS011;47611;54.932;73.338;2022-08-21T14:50:34;13.70;;;6.90;;
60993;SDS011;47611;54.932;73.338;2022-08-21T14:53:00;14.13;;;6.65;;
60993;SDS011;47611;54.932;73.338;2022-08-21T14:55:27;13.48;;;5.43;;
60993;SDS011;47611;54.932;73.338;2022-08-21T14:57:54;14.50;;;7.15;;
60993;SDS011;47611;54.932;73.338;2022-08-21T15:00:24;11.25;;;5.60;;
60993;SDS011;47611;54.932;73.338;2022-08-21T15:02:51;14.43;;;6.97;;
60993;SDS011;47611;54.932;73.338;2022-08-21T15:05:25;18.63;;;8.10;;
60993;SDS011;47611;54.932;73.338;2022-08-21T15:07:51;10.02;;;5.05;;
60993;SDS011;47611;54.932;73.338;2022-08-21T15:10:28;12.52;;;6.43;;
60993;SDS011;47611;54.932;73.338;2022-08-21T15:12:58;11.48;;;5.90;;
60993;SDS011;47611;54.932;73.338;2022-08-21T15:15:25;12.75;;;6.13;;
60993;SDS011;47611;54.932;73.338;2022-08-21T15:17:51;15.40;;;6.47;;
60993;SDS011;47611;54.932;73.338;2022-08-21T15:20:19;14.65;;;6.25;;
60993;SDS011;47611;54.932;73.338;2022-08-21T15:22:45;15.48;;;6.22;;
60993;SDS011;47611;54.932;73.338;2022-08-21T15:25:11;10.15;;;5.70;;
60993;SDS011;47611;54.932;73.338;2022-08-21T15:27:37;12.52;;;6.95;;
60993;SDS011;47611;54.932;73.338;2022-08-21T15:30:08;14.73;;;6.28;;
60993;SDS011;47611;54.932;73.338;2022-08-21T15:32:35;17.08;;;7.90;;
60993;SDS011;47611;54.932;73.338;2022-08-21T15:35:11;23.90;;;9.80;;
60993;SDS011;47611;54.932;73.338;2022-08-21T15:37:37;19.67;;;9.82;;
60993;SDS011;47611;54.932;73.338;2022-08-21T15:40:04;16.13;;;8.48;;
60993;SDS011;47611;54.932;73.338;2022-08-21T15:42:33;28.23;;;10.43;;
60993;SDS011;47611;54.932;73.338;2022-08-21T15:45:00;37.17;;;14.98;;
60993;SDS011;47611;54.932;73.338;2022-08-21T15:47:34;32.47;;;14.35;;
60993;SDS011;47611;54.932;73.338;2022-08-21T15:50:03;30.35;;;10.85;;
60993;SDS011;47611;54.932;73.338;2022-08-21T15:52:31;16.05;;;8.05;;
60993;SDS011;47611;54.932;73.338;2022-08-21T15:54:57;18.67;;;8.93;;
60993;SDS011;47611;54.932;73.338;2022-08-21T15:57:23;25.13;;;11.85;;
60993;SDS011;47611;54.932;73.338;2022-08-21T15:59:52;19.13;;;10.65;;
60993;SDS011;47611;54.932;73.338;2022-08-21T16:02:23;17.58;;;8.75;;
60993;SDS011;47611;54.932;73.338;2022-08-21T16:04:55;25.08;;;10.55;;
60993;SDS011;47611;54.932;73.338;2022-08-21T16:07:29;27.15;;;11.50;;
60993;SDS011;47611;54.932;73.338;2022-08-21T16:09:56;20.92;;;9.52;;
60993;SDS011;47611;54.932;73.338;2022-08-21T16:12:27;21.33;;;9.95;;
60993;SDS011;47611;54.932;73.338;2022-08-21T16:15:01;24.10;;;10.23;;